VIAG/AGR METAR and TAF weather

Enter ICAO airport designator
Station Type Date Time Source
VIAG METAR 2019/07/15 19:30 UTC NOAA

VIAG 151930Z 05004KT 6000 FEW025 SCT100 BKN250 28/27 Q0999 NOSIG


Station Type Date Time Source
VIAG Decoded METAR 2019/07/15 19:30 UTC NOAA

Agra, India (VIAG) 27-09N 077-58E 169M
Jul 15, 2019 - 03:30 PM EDT / 2019.07.15 1930 UTC
Wind: from the NE (050 degrees) at 5 MPH (4 KT):0
Visibility: 3 mile(s):0
Sky conditions: mostly cloudy
Temperature: 82 F (28 C)
Dew Point: 80 F (27 C)
Relative Humidity: 94%
Pressure (altimeter): 29.50 in. Hg (0999 hPa)
ob: VIAG 151930Z 05004KT 6000 FEW025 SCT100 BKN250 28/27 Q0999 NOSIG
cycle: 19

Station Type Date Time Source
VIAG TAF 2019/07/15 18:30 UTC NOAA

TAF VIAG 151530Z 1518/1606 VRB02KT 6000 BKN250

Example: see airport list